createdAt,value
2018-05-03T00:01:22.880Z,9.43
2018-05-03T00:03:55.402Z,6.27
2018-05-03T00:06:29.506Z,5.60
2018-05-03T00:09:03.022Z,5.90
2018-05-03T00:11:35.568Z,5.50
2018-05-03T00:14:08.129Z,6.37
2018-05-03T00:16:40.890Z,7.20
2018-05-03T00:19:13.919Z,5.50
2018-05-03T00:21:46.917Z,5.80
2018-05-03T00:24:20.753Z,8.47
2018-05-03T00:26:54.718Z,6.00
2018-05-03T00:29:27.223Z,7.47
2018-05-03T00:31:59.866Z,6.70
2018-05-03T00:34:33.213Z,6.43
2018-05-03T00:37:05.750Z,6.17
2018-05-03T00:39:38.344Z,6.70
2018-05-03T00:42:12.562Z,5.30
2018-05-03T00:44:45.507Z,6.20
2018-05-03T00:47:18.830Z,6.40
2018-05-03T00:49:52.384Z,6.40
2018-05-03T00:52:25.624Z,5.47
2018-05-03T00:54:58.595Z,5.43
2018-05-03T00:57:31.192Z,6.93
2018-05-03T01:00:04.517Z,10.20
2018-05-03T01:02:37.854Z,5.73
2018-05-03T01:05:10.659Z,6.60
2018-05-03T01:07:43.139Z,6.17
2018-05-03T01:10:15.671Z,6.70
2018-05-03T01:12:48.394Z,7.50
2018-05-03T01:15:21.034Z,5.87
2018-05-03T01:17:55.168Z,7.77
2018-05-03T01:20:27.765Z,5.10
2018-05-03T01:23:00.269Z,5.37
2018-05-03T01:25:32.787Z,5.83
2018-05-03T01:28:05.936Z,11.43
2018-05-03T01:30:39.025Z,6.23
2018-05-03T01:33:11.732Z,6.13
2018-05-03T01:36:03.361Z,6.77
2018-05-03T01:38:36.889Z,5.13
2018-05-03T01:41:10.216Z,4.47
2018-05-03T01:43:42.909Z,7.07
2018-05-03T01:46:16.442Z,6.00
2018-05-03T01:48:56.236Z,7.30
2018-05-03T01:51:28.779Z,5.10
2018-05-03T01:54:02.182Z,9.43
2018-05-03T01:56:34.774Z,9.00
2018-05-03T01:59:07.251Z,6.50
2018-05-03T02:01:40.420Z,9.10
2018-05-03T02:04:13.078Z,5.50
2018-05-03T02:06:46.481Z,5.60
2018-05-03T02:09:19.057Z,7.50
2018-05-03T02:11:51.433Z,6.17
2018-05-03T02:14:23.921Z,7.40
2018-05-03T02:16:56.471Z,5.57
2018-05-03T02:19:29.058Z,5.63
2018-05-03T02:22:02.385Z,7.47
2018-05-03T02:24:35.076Z,7.90
2018-05-03T02:27:08.505Z,5.50
2018-05-03T02:29:41.803Z,10.03
2018-05-03T02:32:14.586Z,6.83
2018-05-03T02:34:47.947Z,6.40
2018-05-03T02:37:20.476Z,5.27
2018-05-03T02:39:53.293Z,5.60
2018-05-03T02:42:26.062Z,6.43
2018-05-03T02:44:58.601Z,6.70
2018-05-03T02:47:31.623Z,7.00
2018-05-03T02:50:04.432Z,6.57
2018-05-03T02:52:37.232Z,7.73
2018-05-03T02:55:09.981Z,5.50
2018-05-03T02:58:07.478Z,6.70
2018-05-03T03:01:05.312Z,6.50
2018-05-03T03:04:03.206Z,6.37
2018-05-03T03:07:01.454Z,6.13
2018-05-03T03:13:33.921Z,5.70
2018-05-03T03:16:31.626Z,14.23
2018-05-03T03:19:27.050Z,6.13
2018-05-03T03:22:24.585Z,7.70
2018-05-03T03:28:48.761Z,6.00
2018-05-03T03:31:47.432Z,6.47
2018-05-03T03:34:28.025Z,5.57
2018-05-03T03:40:27.540Z,7.40
2018-05-03T03:43:27.608Z,6.37
2018-05-03T03:46:00.985Z,6.03
2018-05-03T03:48:33.422Z,5.80
2018-05-03T03:51:05.917Z,7.37
2018-05-03T03:53:39.206Z,6.27
2018-05-03T03:56:12.557Z,7.07
2018-05-03T03:58:45.130Z,6.00
2018-05-03T04:01:18.681Z,6.60
2018-05-03T04:03:51.963Z,7.97
2018-05-03T04:06:26.299Z,6.33
2018-05-03T04:09:00.725Z,6.40
2018-05-03T04:11:34.267Z,5.70
2018-05-03T04:14:06.978Z,10.03
2018-05-03T04:16:39.718Z,10.73
2018-05-03T04:19:31.913Z,5.90
2018-05-03T04:22:24.683Z,6.07
2018-05-03T04:25:16.561Z,5.83
2018-05-03T04:27:48.968Z,6.37
2018-05-03T04:30:21.473Z,5.80
2018-05-03T04:32:54.537Z,8.07
2018-05-03T04:35:27.406Z,5.90
2018-05-03T04:38:00.529Z,8.77
2018-05-03T04:40:34.037Z,6.33
2018-05-03T04:43:06.631Z,5.80
2018-05-03T04:45:40.237Z,7.23
2018-05-03T04:48:12.891Z,6.63
2018-05-03T04:50:45.635Z,11.27
2018-05-03T04:53:18.659Z,13.63
2018-05-03T04:55:51.189Z,6.47
2018-05-03T04:58:23.827Z,7.80
2018-05-03T05:00:57.903Z,9.03
2018-05-03T05:03:30.575Z,11.50
2018-05-03T05:06:03.199Z,7.13
2018-05-03T05:08:35.909Z,5.77
2018-05-03T05:11:08.346Z,5.13
2018-05-03T05:13:41.691Z,5.30
2018-05-03T05:16:14.293Z,11.83
2018-05-03T05:18:46.829Z,7.03
2018-05-03T05:21:20.023Z,5.97
2018-05-03T05:23:52.843Z,4.70
2018-05-03T05:26:25.380Z,5.40
2018-05-03T05:28:58.797Z,7.53
2018-05-03T05:31:31.457Z,8.67
2018-05-03T05:34:04.437Z,5.70
2018-05-03T05:36:38.494Z,6.77
2018-05-03T05:39:12.239Z,9.40
2018-05-03T05:41:44.971Z,6.20
2018-05-03T05:44:18.330Z,6.17
2018-05-03T05:46:51.423Z,8.30
2018-05-03T05:49:24.768Z,5.53
2018-05-03T05:51:57.480Z,11.60
2018-05-03T05:54:30.107Z,6.80
2018-05-03T05:57:02.855Z,8.70
2018-05-03T05:59:35.635Z,7.83
2018-05-03T06:02:09.874Z,7.50
2018-05-03T06:04:42.816Z,7.37
2018-05-03T06:07:16.781Z,9.03
2018-05-03T06:09:50.305Z,8.63
2018-05-03T06:12:23.066Z,7.20
2018-05-03T06:14:55.495Z,12.70
2018-05-03T06:17:28.726Z,7.83
2018-05-03T06:20:01.176Z,6.60
2018-05-03T06:22:34.598Z,7.17
2018-05-03T06:25:07.135Z,18.97
2018-05-03T06:27:40.852Z,10.47
2018-05-03T06:30:14.257Z,10.30
2018-05-03T06:32:48.208Z,10.17
2018-05-03T06:35:21.013Z,6.40
2018-05-03T06:37:54.231Z,7.10
2018-05-03T06:40:26.870Z,9.50
2018-05-03T06:42:59.385Z,6.87
2018-05-03T06:45:32.970Z,7.77
2018-05-03T06:48:06.185Z,15.40
2018-05-03T06:50:38.967Z,12.73
2018-05-03T06:53:12.474Z,9.30
2018-05-03T06:55:45.555Z,10.50
2018-05-03T06:58:18.248Z,11.87
2018-05-03T07:00:51.956Z,6.90
2018-05-03T07:03:25.791Z,7.43
2018-05-03T07:05:58.591Z,7.30
2018-05-03T07:08:31.149Z,8.90
2018-05-03T07:11:04.613Z,13.63
2018-05-03T07:13:37.669Z,7.57
2018-05-03T07:16:10.214Z,6.67
2018-05-03T07:18:43.539Z,9.87
2018-05-03T07:21:16.463Z,5.60
2018-05-03T07:23:48.920Z,8.83
2018-05-03T07:26:22.197Z,8.00
2018-05-03T07:28:54.796Z,7.83
2018-05-03T07:31:28.203Z,6.63
2018-05-03T07:34:00.782Z,4.70
2018-05-03T07:36:35.054Z,8.20
2018-05-03T07:39:07.818Z,15.43
2018-05-03T07:41:41.990Z,10.60
2018-05-03T07:44:14.780Z,12.73
2018-05-03T07:46:47.465Z,5.60
2018-05-03T07:49:20.865Z,5.90
2018-05-03T07:51:53.396Z,6.97
2018-05-03T07:54:26.132Z,5.90
2018-05-03T07:56:58.897Z,5.73
2018-05-03T07:59:31.484Z,8.10
2018-05-03T08:02:04.275Z,4.93
2018-05-03T08:04:37.004Z,12.33
2018-05-03T08:07:10.169Z,10.03
2018-05-03T08:09:42.894Z,7.30
2018-05-03T08:12:15.527Z,12.63
2018-05-03T08:14:49.040Z,13.23
2018-05-03T08:17:22.174Z,7.73
2018-05-03T08:19:54.647Z,7.60
2018-05-03T08:22:27.322Z,7.37
2018-05-03T08:25:00.699Z,7.77
2018-05-03T08:27:33.633Z,7.10
2018-05-03T08:30:06.113Z,6.03
2018-05-03T08:32:38.539Z,9.00
2018-05-03T08:35:11.695Z,4.30
2018-05-03T08:37:45.216Z,5.20
2018-05-03T08:40:18.627Z,3.63
2018-05-03T08:42:51.937Z,9.90
2018-05-03T08:45:25.357Z,7.20
2018-05-03T08:47:58.253Z,9.60
2018-05-03T08:50:30.773Z,14.87
2018-05-03T08:53:03.278Z,5.60
2018-05-03T08:55:36.033Z,6.97
2018-05-03T08:58:08.505Z,9.97
2018-05-03T09:00:41.674Z,7.43
2018-05-03T09:03:14.397Z,9.10
2018-05-03T09:05:46.952Z,8.50
2018-05-03T09:08:19.737Z,7.27
2018-05-03T09:10:53.012Z,17.27
2018-05-03T09:13:25.964Z,5.80
2018-05-03T09:15:59.461Z,5.50
2018-05-03T09:18:33.363Z,12.60
2018-05-03T09:21:06.990Z,6.40
2018-05-03T09:23:39.815Z,7.17
2018-05-03T09:26:12.439Z,12.93
2018-05-03T09:28:45.231Z,7.50
2018-05-03T09:31:18.619Z,6.57
2018-05-03T09:33:51.257Z,8.10
2018-05-03T09:36:23.927Z,6.90
2018-05-03T09:38:56.559Z,5.10
2018-05-03T09:41:29.040Z,10.60
2018-05-03T09:44:02.378Z,7.33
2018-05-03T09:46:35.433Z,11.93
2018-05-03T09:49:09.316Z,9.30
2018-05-03T09:51:42.804Z,7.80
2018-05-03T09:54:15.494Z,5.73
2018-05-03T09:56:48.043Z,8.03
2018-05-03T09:59:20.652Z,4.87
2018-05-03T10:01:54.005Z,6.50
2018-05-03T10:04:27.557Z,9.70
2018-05-03T10:07:00.185Z,14.33
2018-05-03T10:09:39.732Z,5.50
2018-05-03T10:12:12.292Z,6.43
2018-05-03T10:14:45.042Z,16.20
2018-05-03T10:17:18.483Z,7.40
2018-05-03T10:19:51.644Z,6.23
2018-05-03T10:22:25.605Z,10.17
2018-05-03T10:24:59.518Z,9.10
2018-05-03T10:27:32.373Z,11.07
2018-05-03T10:30:05.065Z,7.70
2018-05-03T10:32:38.093Z,12.97
2018-05-03T10:35:10.770Z,8.00
2018-05-03T10:37:43.375Z,7.00
2018-05-03T10:40:15.862Z,8.10
2018-05-03T10:42:48.460Z,7.93
2018-05-03T10:45:21.038Z,6.30
2018-05-03T10:47:53.787Z,10.77
2018-05-03T10:50:26.489Z,9.63
2018-05-03T10:52:59.257Z,5.60
2018-05-03T10:55:32.409Z,6.30
2018-05-03T10:58:05.333Z,7.27
2018-05-03T11:00:37.863Z,12.20
2018-05-03T11:03:11.049Z,11.33
2018-05-03T11:05:43.697Z,8.90
2018-05-03T11:08:16.189Z,10.07
2018-05-03T11:10:49.689Z,12.27
2018-05-03T11:13:23.741Z,6.83
2018-05-03T11:15:56.655Z,10.70
2018-05-03T11:18:29.120Z,15.03
2018-05-03T11:21:02.059Z,6.57
2018-05-03T11:23:35.216Z,6.30
2018-05-03T11:26:08.597Z,5.50
2018-05-03T11:28:41.366Z,7.17
2018-05-03T11:31:14.655Z,10.27
2018-05-03T11:33:48.121Z,8.40
2018-05-03T11:36:21.303Z,8.97
2018-05-03T11:38:53.944Z,13.80
2018-05-03T11:41:26.739Z,8.07
2018-05-03T11:43:59.353Z,12.27
2018-05-03T11:46:31.998Z,7.47
2018-05-03T11:49:05.439Z,8.30
2018-05-03T11:51:38.980Z,7.70
2018-05-03T11:54:12.660Z,11.17
2018-05-03T11:56:45.746Z,5.70
2018-05-03T11:59:18.937Z,12.70
2018-05-03T12:01:52.041Z,7.13
2018-05-03T12:04:24.466Z,7.00
2018-05-03T12:06:57.682Z,4.77
2018-05-03T12:09:30.141Z,5.70
2018-05-03T12:12:02.656Z,13.00
2018-05-03T12:14:35.158Z,7.40
2018-05-03T12:17:08.448Z,7.03
2018-05-03T12:19:41.097Z,11.20
2018-05-03T12:22:13.779Z,10.30
2018-05-03T12:24:46.294Z,16.60
2018-05-03T12:27:19.576Z,5.80
2018-05-03T12:29:53.185Z,7.57
2018-05-03T12:32:25.825Z,6.90
2018-05-03T12:34:59.022Z,7.57
2018-05-03T12:37:32.677Z,6.73
2018-05-03T12:40:05.478Z,8.77
2018-05-03T12:42:39.045Z,12.43
2018-05-03T12:45:11.864Z,6.30
2018-05-03T12:47:44.505Z,8.60
2018-05-03T12:50:16.999Z,10.57
2018-05-03T12:52:50.378Z,6.93
2018-05-03T12:55:23.097Z,7.17
2018-05-03T12:57:56.447Z,8.10
2018-05-03T13:03:21.319Z,8.17
2018-05-03T13:05:54.437Z,14.20
2018-05-03T13:08:27.069Z,5.10
2018-05-03T13:11:01.148Z,7.70
2018-05-03T13:13:33.969Z,10.43
2018-05-03T13:16:08.079Z,8.00
2018-05-03T13:18:40.870Z,10.23
2018-05-03T13:21:14.220Z,4.97
2018-05-03T13:23:46.795Z,6.23
2018-05-03T13:26:20.222Z,13.30
2018-05-03T13:28:53.531Z,9.87
2018-05-03T13:31:27.806Z,6.03
2018-05-03T13:34:01.199Z,7.00
2018-05-03T13:36:34.637Z,9.50
2018-05-03T13:39:07.269Z,5.17
2018-05-03T13:41:39.696Z,6.23
2018-05-03T13:44:12.162Z,6.80
2018-05-03T13:46:44.676Z,7.43
2018-05-03T13:49:18.041Z,5.93
2018-05-03T13:51:50.592Z,6.00
2018-05-03T13:54:24.088Z,8.13
2018-05-03T13:56:56.640Z,6.33
2018-05-03T13:59:29.878Z,5.20
2018-05-03T14:02:03.937Z,7.53
2018-05-03T14:04:36.690Z,13.43
2018-05-03T14:07:10.202Z,11.77
2018-05-03T14:09:43.459Z,8.17
2018-05-03T14:12:16.863Z,12.30
2018-05-03T14:14:50.272Z,9.23
2018-05-03T14:17:23.719Z,9.57
2018-05-03T14:19:57.057Z,8.57
2018-05-03T14:22:30.298Z,7.20
2018-05-03T14:25:03.050Z,10.70
2018-05-03T14:27:36.269Z,5.67
2018-05-03T14:30:09.526Z,7.00
2018-05-03T14:32:42.882Z,16.10
2018-05-03T14:35:17.109Z,10.17
2018-05-03T14:37:50.277Z,8.33
2018-05-03T14:40:23.295Z,10.77
2018-05-03T14:42:57.564Z,12.40
2018-05-03T14:45:30.967Z,10.40
2018-05-03T14:48:03.489Z,7.73
2018-05-03T14:50:35.961Z,11.00
2018-05-03T14:53:09.285Z,13.10
2018-05-03T14:55:41.888Z,12.40
2018-05-03T14:58:15.910Z,15.00
2018-05-03T15:00:49.298Z,10.23
2018-05-03T15:03:22.042Z,12.70
2018-05-03T15:05:54.570Z,76.07
2018-05-03T15:08:27.035Z,11.30
2018-05-03T15:11:00.366Z,10.53
2018-05-03T15:13:32.997Z,13.37
2018-05-03T15:16:06.228Z,11.60
2018-05-03T15:18:38.822Z,16.73
2018-05-03T15:21:11.395Z,14.10
2018-05-03T15:23:43.870Z,11.53
2018-05-03T15:26:16.320Z,18.50
2018-05-03T15:28:48.754Z,15.47
2018-05-03T15:31:21.280Z,12.40
2018-05-03T15:33:54.600Z,13.33
2018-05-03T15:36:27.147Z,18.80
2018-05-03T15:39:00.172Z,11.60
2018-05-03T15:41:33.445Z,12.10
2018-05-03T15:44:06.726Z,31.50
2018-05-03T15:46:39.263Z,19.63
2018-05-03T15:49:13.403Z,28.90
2018-05-03T15:51:46.067Z,22.20
2018-05-03T15:54:19.402Z,22.73
2018-05-03T15:56:52.270Z,30.20
2018-05-03T15:59:24.891Z,26.63
2018-05-03T16:01:57.421Z,37.83
2018-05-03T16:04:30.080Z,31.50
2018-05-03T16:07:02.792Z,36.53
2018-05-03T16:09:35.278Z,29.43
2018-05-03T16:12:08.581Z,33.67
2018-05-03T16:14:41.257Z,30.87
2018-05-03T16:17:13.672Z,30.47
2018-05-03T16:19:46.973Z,30.10
2018-05-03T16:22:19.598Z,33.33
2018-05-03T16:24:51.997Z,30.97
2018-05-03T16:27:25.357Z,39.93
2018-05-03T16:29:57.826Z,42.93
2018-05-03T16:32:30.307Z,34.33
2018-05-03T16:35:03.651Z,35.93
2018-05-03T16:37:36.979Z,36.90
2018-05-03T16:40:09.650Z,35.57
2018-05-03T16:42:42.119Z,32.40
2018-05-03T16:45:14.726Z,35.37
2018-05-03T16:47:47.187Z,33.30
2018-05-03T16:50:20.023Z,37.23
2018-05-03T16:52:53.275Z,23.73
2018-05-03T16:55:25.769Z,34.73
2018-05-03T16:57:58.969Z,30.87
2018-05-03T17:00:31.711Z,35.07
2018-05-03T17:03:05.189Z,32.63
2018-05-03T17:05:37.961Z,32.93
2018-05-03T17:08:10.394Z,30.33
2018-05-03T17:10:43.020Z,29.40
2018-05-03T17:13:16.328Z,29.27
2018-05-03T17:15:49.798Z,20.03
2018-05-03T17:18:22.498Z,26.17
2018-05-03T17:20:54.898Z,29.80
2018-05-03T17:23:28.124Z,26.73
2018-05-03T17:26:00.923Z,28.30
2018-05-03T17:28:33.363Z,20.93
2018-05-03T17:31:06.735Z,17.73
2018-05-03T17:33:39.427Z,15.90
2018-05-03T17:36:13.634Z,23.13
2018-05-03T17:38:46.265Z,25.20
2018-05-03T17:41:18.886Z,22.60
2018-05-03T17:43:51.357Z,21.37
2018-05-03T17:46:24.607Z,22.23
2018-05-03T17:48:57.341Z,18.30
2018-05-03T17:51:30.038Z,23.20
2018-05-03T17:54:03.326Z,17.03
2018-05-03T17:56:36.849Z,19.00
2018-05-03T17:59:10.166Z,18.80
2018-05-03T18:01:43.007Z,14.17
2018-05-03T18:04:15.584Z,15.00
2018-05-03T18:06:48.295Z,13.63
2018-05-03T18:09:20.905Z,16.73
2018-05-03T18:11:53.609Z,25.87
2018-05-03T18:14:26.063Z,21.67
2018-05-03T18:16:58.712Z,13.20
2018-05-03T18:19:31.290Z,15.00
2018-05-03T18:22:03.806Z,19.43
2018-05-03T18:24:36.113Z,17.27
2018-05-03T18:27:08.773Z,17.00
2018-05-03T18:29:41.417Z,19.77
2018-05-03T18:32:14.004Z,26.33
2018-05-03T18:34:47.251Z,18.67
2018-05-03T18:37:19.781Z,18.57
2018-05-03T18:39:53.294Z,25.40
2018-05-03T18:42:27.798Z,14.07
2018-05-03T18:45:01.937Z,18.00
2018-05-03T18:47:35.417Z,15.60
2018-05-03T18:50:08.591Z,17.60
2018-05-03T18:52:42.689Z,20.27
2018-05-03T18:55:16.014Z,14.23
2018-05-03T18:57:50.484Z,13.50
2018-05-03T19:00:24.271Z,13.30
2018-05-03T19:02:58.029Z,13.93
2018-05-03T19:05:31.599Z,15.30
2018-05-03T19:08:04.521Z,14.23
2018-05-03T19:10:38.184Z,21.63
2018-05-03T19:13:11.417Z,13.70
2018-05-03T19:15:44.778Z,12.90
2018-05-03T19:18:19.478Z,15.63
2018-05-03T19:20:54.151Z,12.37
2018-05-03T19:23:28.777Z,15.30
2018-05-03T19:26:03.011Z,14.80
2018-05-03T19:28:37.874Z,10.67
2018-05-03T19:31:12.995Z,21.33
2018-05-03T19:33:47.664Z,13.17
2018-05-03T19:36:22.178Z,19.53
2018-05-03T19:38:56.488Z,18.17
2018-05-03T19:41:32.690Z,13.10
2018-05-03T19:44:08.159Z,11.67
2018-05-03T19:46:42.917Z,17.63
2018-05-03T19:49:17.442Z,12.13
2018-05-03T19:51:52.045Z,10.30
2018-05-03T19:54:26.867Z,14.53
2018-05-03T19:57:01.409Z,12.57
2018-05-03T19:59:36.025Z,11.73
2018-05-03T20:02:09.663Z,13.10
2018-05-03T20:04:42.798Z,12.40
2018-05-03T20:07:16.269Z,10.23
2018-05-03T20:09:49.974Z,17.63
2018-05-03T20:12:23.440Z,15.50
2018-05-03T20:14:56.596Z,12.17
2018-05-03T20:17:30.498Z,20.10
2018-05-03T20:20:03.255Z,18.07
2018-05-03T20:22:35.797Z,13.43
2018-05-03T20:25:08.422Z,17.43
2018-05-03T20:27:42.012Z,13.67
2018-05-03T20:30:16.124Z,19.07
2018-05-03T20:32:50.248Z,19.43
2018-05-03T20:35:23.015Z,20.00
2018-05-03T20:37:56.228Z,18.10
2018-05-03T20:40:28.983Z,17.27
2018-05-03T20:43:01.473Z,15.03
2018-05-03T20:45:33.834Z,10.80
2018-05-03T20:48:06.620Z,14.77
2018-05-03T20:50:39.976Z,30.60
2018-05-03T20:53:12.508Z,14.57
2018-05-03T20:55:45.045Z,17.17
2018-05-03T20:58:17.431Z,15.80
2018-05-03T21:00:50.755Z,18.23
2018-05-03T21:03:23.374Z,17.50
2018-05-03T21:05:55.744Z,18.77
2018-05-03T21:08:29.204Z,18.57
2018-05-03T21:11:01.943Z,12.97
2018-05-03T21:13:36.919Z,20.90
2018-05-03T21:16:09.671Z,20.90
2018-05-03T21:18:43.825Z,18.03
2018-05-03T21:21:16.408Z,16.37
2018-05-03T21:23:48.950Z,13.80
2018-05-03T21:26:22.253Z,13.70
2018-05-03T21:28:55.598Z,16.00
2018-05-03T21:31:28.207Z,15.70
2018-05-03T21:34:01.433Z,19.53
2018-05-03T21:36:34.053Z,13.83
2018-05-03T21:39:06.485Z,12.43
2018-05-03T21:41:39.189Z,13.57
2018-05-03T21:44:11.828Z,11.73
2018-05-03T21:46:44.416Z,17.80
2018-05-03T21:49:16.916Z,17.90
2018-05-03T21:51:49.373Z,25.23
2018-05-03T21:54:21.886Z,24.20
2018-05-03T21:56:54.354Z,19.90
2018-05-03T21:59:27.919Z,17.53
2018-05-03T22:02:00.567Z,15.80
2018-05-03T22:04:34.013Z,18.90
2018-05-03T22:07:07.475Z,25.60
2018-05-03T22:09:40.288Z,18.43
2018-05-03T22:12:13.363Z,18.33
2018-05-03T22:14:46.203Z,24.87
2018-05-03T22:17:19.531Z,20.70
2018-05-03T22:19:52.918Z,20.33
2018-05-03T22:22:25.579Z,16.00
2018-05-03T22:24:58.182Z,17.60
2018-05-03T22:27:31.464Z,17.07
2018-05-03T22:30:03.942Z,21.53
2018-05-03T22:32:36.341Z,20.60
2018-05-03T22:35:09.083Z,23.07
2018-05-03T22:37:42.426Z,21.33
2018-05-03T22:40:14.986Z,18.10
2018-05-03T22:42:48.384Z,15.90
2018-05-03T22:45:21.156Z,14.60
2018-05-03T22:47:53.556Z,16.20
2018-05-03T22:50:26.384Z,18.10
2018-05-03T22:52:58.729Z,27.00
2018-05-03T22:55:31.881Z,16.40
2018-05-03T22:58:04.731Z,18.73
2018-05-03T23:00:38.178Z,22.13
2018-05-03T23:03:11.113Z,20.50
2018-05-03T23:05:43.619Z,21.20
2018-05-03T23:08:16.161Z,17.43
2018-05-03T23:10:48.713Z,18.33
2018-05-03T23:13:21.170Z,24.40
2018-05-03T23:15:53.656Z,20.53
2018-05-03T23:18:25.996Z,23.13
2018-05-03T23:20:59.321Z,16.67
2018-05-03T23:23:31.945Z,15.90
2018-05-03T23:26:05.117Z,15.60
2018-05-03T23:28:37.863Z,18.70
2018-05-03T23:31:10.427Z,21.10
2018-05-03T23:33:44.467Z,21.67
2018-05-03T23:36:17.119Z,16.00
2018-05-03T23:38:49.550Z,19.60
2018-05-03T23:41:21.940Z,21.20
2018-05-03T23:43:54.456Z,18.33
2018-05-03T23:46:28.567Z,20.97
2018-05-03T23:49:01.197Z,12.70
2018-05-03T23:51:34.407Z,18.27
2018-05-03T23:54:06.827Z,14.27
2018-05-03T23:56:40.125Z,15.50
2018-05-03T23:59:13.261Z,13.63
